Time;durP1;ratioP1;P1;durP2;ratioP2;P2;SDS_P1;SDS_P2;PMS_P1;PMS_P2;Temp;Humidity;BMP_temperature;BMP_pressure;BME280_temperature;BME280_humidity;BME280_pressure;Samples;Min_cycle;Max_cycle;Signal;HPM_P1;HPM_P2
2022/01/26 00:06:28;;;;;;;;;28.00;28.00;;;;;5.86;61.75;103195.88;4977142;28;45329;-82
2022/01/26 00:08:54;;;;;;;;;39.25;32.75;;;;;5.84;61.64;103183.50;4977740;28;45308;-82
2022/01/26 00:11:19;;;;;;;;;39.75;33.50;;;;;5.67;61.75;103156.78;4976549;28;45483;-82
2022/01/26 00:13:44;;;;;;;;;45.00;35.25;;;;;5.90;61.56;103200.38;4976885;28;45668;-83
2022/01/26 00:18:47;;;;;;;;;38.50;33.25;;;;;5.95;61.47;103195.19;4967937;28;45603;-83
2022/01/26 00:21:24;;;;;;;;;41.25;34.00;;;;;5.83;61.32;103168.47;4979207;28;46174;-83
2022/01/26 00:26:33;;;;;;;;;41.00;32.75;;;;;5.79;61.77;103178.13;4979696;28;45430;-83
2022/01/26 00:29:10;;;;;;;;;35.00;28.50;;;;;5.88;61.76;103193.28;4980363;28;45373;-83
2022/01/26 00:40:14;;;;;;;;;36.75;34.25;;;;;6.01;61.62;103194.38;4980013;28;45295;-83
2022/01/26 00:42:42;;;;;;;;;40.50;32.25;;;;;5.90;62.04;103183.59;4979748;28;46590;-83
2022/01/26 00:45:09;;;;;;;;;33.25;28.75;;;;;5.82;61.78;103172.88;4979241;28;45321;-83
2022/01/26 00:47:34;;;;;;;;;33.75;30.75;;;;;6.00;61.79;103204.06;4979517;28;45476;-83
2022/01/26 00:50:05;;;;;;;;;37.75;27.75;;;;;6.02;62.31;103206.75;4962672;28;45532;-83
2022/01/26 00:52:45;;;;;;;;;30.00;23.75;;;;;5.89;61.61;103171.22;4962252;28;48186;-83
2022/01/26 00:55:16;;;;;;;;;31.75;31.50;;;;;6.08;61.64;103204.19;4979731;28;45468;-83
2022/01/26 00:57:42;;;;;;;;;38.25;32.25;;;;;5.96;61.77;103183.72;4979875;28;45342;-83
2022/01/26 01:00:11;;;;;;;;;40.00;34.00;;;;;5.86;61.07;103163.25;4980003;28;45412;-83
2022/01/26 01:02:37;;;;;;;;;34.00;28.50;;;;;6.08;61.39;103197.13;4979233;28;46117;-83
2022/01/26 01:05:12;;;;;;;;;39.75;31.75;;;;;5.97;60.77;103181.94;4978861;28;45302;-84
2022/01/26 01:07:39;;;;;;;;;37.00;34.00;;;;;6.07;61.16;103203.28;4979474;28;45498;-83
2022/01/26 01:10:06;;;;;;;;;36.75;31.50;;;;;6.07;60.85;103192.69;4961354;28;45608;-83
2022/01/26 01:12:37;;;;;;;;;30.75;27.00;;;;;5.75;60.56;103135.72;4979350;28;45449;-83
2022/01/26 01:15:03;;;;;;;;;25.25;19.00;;;;;5.78;60.31;103141.94;4979196;28;45462;-83
2022/01/26 01:17:36;;;;;;;;;31.50;31.00;;;;;5.80;60.95;103148.16;4978625;28;45401;-83
2022/01/26 01:23:07;;;;;;;;;31.25;28.75;;;;;6.05;60.72;103193.56;4978855;28;45569;-83
2022/01/26 01:30:49;;;;;;;;;40.50;33.25;;;;;5.98;60.25;103183.75;4979392;28;45468;-83
2022/01/26 01:33:21;;;;;;;;;39.50;34.50;;;;;6.09;60.17;103201.56;4960977;28;47952;-83
2022/01/26 01:35:47;;;;;;;;;47.00;34.50;;;;;6.09;60.15;103204.22;4979137;28;45708;-83
2022/01/26 01:38:17;;;;;;;;;36.25;30.25;;;;;6.00;60.21;103182.91;4978518;28;45631;-83
2022/01/26 01:40:44;;;;;;;;;39.25;34.25;;;;;6.11;59.68;103201.56;4960474;28;45494;-83
2022/01/26 01:43:11;;;;;;;;;31.25;31.00;;;;;6.09;60.10;103200.69;4978999;28;46154;-83
2022/01/26 01:45:45;;;;;;;;;35.75;31.75;;;;;6.09;60.15;103201.56;4978290;28;45607;-83
2022/01/26 01:48:13;;;;;;;;;35.75;30.50;;;;;6.08;59.98;103204.19;4961143;28;45366;-83
2022/01/26 01:50:41;;;;;;;;;32.75;28.25;;;;;6.07;60.07;103208.59;4979500;28;45525;-83
2022/01/26 01:53:11;;;;;;;;;36.25;29.75;;;;;6.03;60.29;103200.56;4979129;28;45382;-83
2022/01/26 01:55:43;;;;;;;;;33.50;31.00;;;;;5.96;59.48;103196.06;4978283;28;45469;-83
2022/01/26 01:58:10;;;;;;;;;29.25;24.75;;;;;6.09;59.63;103219.22;4978559;28;46087;-83
2022/01/26 02:00:36;;;;;;;;;40.25;32.25;;;;;6.08;59.55;103217.41;4978920;28;45397;-83
2022/01/26 02:03:03;;;;;;;;;30.75;29.75;;;;;6.08;59.69;103217.41;4978935;28;45440;-83
2022/01/26 02:05:28;;;;;;;;;31.25;28.50;;;;;6.08;59.84;103226.25;4977935;28;45481;-83
2022/01/26 02:07:54;;;;;;;;;37.00;28.25;;;;;6.07;59.64;103226.25;4960819;28;45417;-83
2022/01/26 02:10:22;;;;;;;;;28.00;26.50;;;;;6.06;59.37;103220.06;4976985;28;45538;-83
2022/01/26 02:12:51;;;;;;;;;37.00;31.25;;;;;5.94;59.46;103198.66;4978969;28;46019;-83
2022/01/26 02:15:22;;;;;;;;;34.25;26.50;;;;;6.06;59.24;103220.06;4977967;28;45317;-83
2022/01/26 02:18:11;;;;;;;;;30.50;23.00;;;;;6.02;59.49;103204.09;4978785;28;45371;-83
2022/01/26 02:55:49;;;;;;;;;32.00;28.25;;;;;5.75;59.60;103156.91;4977338;28;46237;-83
2022/01/26 03:01:22;;;;;;;;;33.50;30.75;;;;;6.05;59.09;103190.91;4978206;28;45725;-83
2022/01/26 03:04:13;;;;;;;;;31.00;30.00;;;;;6.07;59.86;103197.13;4978504;28;45666;-83
2022/01/26 03:07:07;;;;;;;;;31.50;25.75;;;;;5.97;59.80;103174.00;4977841;28;46207;-83
2022/01/26 03:09:36;;;;;;;;;30.00;28.25;;;;;5.82;60.37;103148.19;4977700;28;45374;-83
2022/01/26 03:12:04;;;;;;;;;35.50;32.00;;;;;5.99;60.22;103169.63;4978057;28;45213;-83
2022/01/26 03:14:50;;;;;;;;;29.00;27.00;;;;;6.15;59.50;103186.63;4977566;28;45493;-83
2022/01/26 03:19:56;;;;;;;;;30.50;27.50;;;;;6.06;59.83;103160.91;4977042;28;45464;-83
2022/01/26 03:30:36;;;;;;;;;36.50;28.75;;;;;5.99;59.10;103138.75;4976739;28;45432;-83
2022/01/26 03:35:48;;;;;;;;;36.00;32.00;;;;;6.24;58.84;103162.91;4986902;28;45491;-83
2022/01/26 03:38:20;;;;;;;;;40.00;31.00;;;;;6.09;59.50;103131.84;4960001;28;47106;-83
2022/01/26 03:40:47;;;;;;;;;34.00;31.25;;;;;6.16;59.22;103149.59;4977298;28;45561;-83
2022/01/26 03:43:12;;;;;;;;;35.25;27.50;;;;;6.23;58.76;103164.69;4977146;28;45560;-83
2022/01/26 03:45:37;;;;;;;;;31.75;27.50;;;;;6.25;59.29;103172.63;4959512;28;45369;-83
2022/01/26 03:48:03;;;;;;;;;34.75;30.00;;;;;6.12;59.20;103156.59;4956046;28;47563;-83
2022/01/26 03:50:28;;;;;;;;;33.25;26.75;;;;;6.26;58.98;103180.59;4974373;28;45505;-83
2022/01/26 03:52:54;;;;;;;;;33.50;26.75;;;;;6.26;59.58;103177.06;4981221;28;45526;-83
2022/01/26 03:55:19;;;;;;;;;38.50;32.50;;;;;6.26;59.30;103185.91;4980313;28;45607;-83
2022/01/26 03:57:45;;;;;;;;;39.00;31.25;;;;;5.97;58.94;103124.63;4963110;28;46441;-83
2022/01/26 04:00:11;;;;;;;;;43.25;35.25;;;;;6.21;59.36;103170.84;4979527;28;45469;-83
2022/01/26 04:02:36;;;;;;;;;42.25;32.00;;;;;5.91;58.94;103122.72;4980797;28;45491;-83
2022/01/26 04:05:06;;;;;;;;;39.00;33.00;;;;;6.00;58.96;103132.59;4962436;28;45494;-84
2022/01/26 04:07:32;;;;;;;;;33.00;30.25;;;;;5.94;58.76;103119.25;4980956;28;45634;-84
2022/01/26 04:10:05;;;;;;;;;33.00;32.75;;;;;6.26;58.96;103182.38;4961931;28;45255;-84
2022/01/26 04:12:33;;;;;;;;;38.00;30.75;;;;;6.23;58.97;103169.97;4980760;28;45357;-84
2022/01/26 04:15:12;;;;;;;;;35.50;31.75;;;;;6.17;58.96;103161.06;4980206;28;45519;-84
2022/01/26 04:17:38;;;;;;;;;42.50;34.25;;;;;6.11;58.88;103135.38;4961992;28;46460;-84
2022/01/26 04:20:03;;;;;;;;;28.50;25.75;;;;;6.30;58.82;103165.66;4962809;28;45521;-84
2022/01/26 04:22:37;;;;;;;;;35.50;30.00;;;;;6.07;58.65;103126.53;4980262;28;45366;-84
2022/01/26 04:25:05;;;;;;;;;53.00;37.75;;;;;5.78;58.59;103080.19;4979320;28;45649;-84
2022/01/26 04:29:55;;;;;;;;;44.50;33.25;;;;;6.22;58.44;103154.06;4980460;28;45483;-83
2022/01/26 04:32:22;;;;;;;;;38.25;33.75;;;;;6.31;58.58;103163.00;4961882;28;45421;-83
2022/01/26 04:34:48;;;;;;;;;39.75;35.50;;;;;6.13;58.71;103134.56;4990334;28;45523;-84
2022/01/26 04:40:00;;;;;;;;;42.75;33.75;;;;;6.31;58.67;103167.44;4984124;28;45322;-84
2022/01/26 04:42:46;;;;;;;;;46.00;34.75;;;;;6.17;58.57;103134.59;4980198;28;45545;-83
2022/01/26 04:45:11;;;;;;;;;44.25;39.00;;;;;6.34;59.08;103159.50;4979610;28;45551;-85
2022/01/26 04:47:38;;;;;;;;;39.50;30.25;;;;;6.12;58.94;103116.88;4961839;28;46542;-84
2022/01/26 04:50:06;;;;;;;;;42.00;33.75;;;;;6.38;58.91;103165.75;4979806;28;45420;-83
2022/01/26 04:52:32;;;;;;;;;44.00;33.50;;;;;6.14;58.49;103124.84;4979480;28;45709;-83
2022/01/26 04:54:58;;;;;;;;;41.00;35.75;;;;;6.36;59.29;103164.84;4962293;28;45618;-83
2022/01/26 04:57:23;;;;;;;;;35.50;32.25;;;;;6.08;59.30;103106.22;4979129;28;45384;-83
2022/01/26 04:59:51;;;;;;;;;40.00;34.50;;;;;6.26;58.99;103132.06;4979529;28;47025;-83
2022/01/26 05:02:17;;;;;;;;;45.75;36.00;;;;;6.15;58.81;103118.66;4978335;28;53877;-83
2022/01/26 05:04:42;;;;;;;;;47.00;38.00;;;;;6.25;59.14;103136.47;4979178;28;45528;-84
2022/01/26 05:07:07;;;;;;;;;40.75;35.75;;;;;6.41;59.01;103164.00;4979674;28;49233;-82
2022/01/26 05:09:33;;;;;;;;;38.00;33.50;;;;;6.37;59.42;103148.97;4978808;28;45643;-83
2022/01/26 05:11:59;;;;;;;;;43.25;36.00;;;;;6.40;58.66;103158.72;4979240;28;45507;-83
2022/01/26 05:14:25;;;;;;;;;44.75;38.50;;;;;6.39;58.93;103152.53;4979824;28;45513;-82
2022/01/26 05:16:50;;;;;;;;;50.25;39.25;;;;;6.15;58.81;103120.44;4979445;28;45466;-83
2022/01/26 05:19:16;;;;;;;;;50.50;37.50;;;;;6.40;58.86;103166.66;4974555;28;45314;-82
2022/01/26 05:21:42;;;;;;;;;44.50;38.50;;;;;6.22;58.97;103131.13;4978580;28;45811;-83
2022/01/26 05:24:10;;;;;;;;;55.75;41.25;;;;;6.38;58.87;103157.81;4979598;28;45349;-82
2022/01/26 05:26:36;;;;;;;;;46.00;38.25;;;;;6.38;59.02;103157.81;4978870;28;45937;-84
2022/01/26 05:29:02;;;;;;;;;41.00;37.00;;;;;6.34;59.01;103147.19;4961550;28;45430;-83
2022/01/26 05:31:27;;;;;;;;;45.00;37.25;;;;;6.33;59.06;103153.34;4978750;28;45578;-82
2022/01/26 05:33:54;;;;;;;;;47.00;40.00;;;;;6.33;58.96;103149.81;4979612;28;45554;-83
2022/01/26 05:36:19;;;;;;;;;40.00;33.25;;;;;6.35;58.66;103145.41;4978828;28;45516;-83
2022/01/26 05:38:44;;;;;;;;;51.00;39.75;;;;;6.19;58.77;103117.84;4977075;28;45547;-83
2022/01/26 05:41:10;;;;;;;;;44.75;36.25;;;;;6.34;58.19;103139.25;4978582;28;45422;-83
2022/01/26 05:43:35;;;;;;;;;51.75;37.25;;;;;6.34;58.79;103146.28;4978288;28;45486;-83
2022/01/26 05:46:07;;;;;;;;;37.75;34.25;;;;;6.27;58.91;103133.81;4978075;28;45709;-83
2022/01/26 05:48:34;;;;;;;;;38.75;35.00;;;;;6.39;58.02;103148.97;4978491;28;45340;-83
2022/01/26 05:51:07;;;;;;;;;48.75;40.00;;;;;6.23;58.17;103116.13;4978512;28;45231;-83
2022/01/26 05:53:33;;;;;;;;;50.75;40.25;;;;;6.42;57.35;103149.03;4978398;28;45603;-83
2022/01/26 05:56:00;;;;;;;;;56.75;45.75;;;;;6.40;58.31;103145.47;4972511;28;45582;-84
2022/01/26 05:58:25;;;;;;;;;50.75;42.00;;;;;6.16;58.29;103117.81;4961298;28;46566;-84
2022/01/26 06:00:51;;;;;;;;;52.50;42.00;;;;;6.42;58.13;103154.34;4978308;28;45302;-83
2022/01/26 06:03:16;;;;;;;;;57.00;43.75;;;;;6.43;57.97;103151.69;4978571;28;45424;-83
2022/01/26 06:05:41;;;;;;;;;52.75;40.25;;;;;6.41;57.97;103155.19;4959590;28;47253;-83
2022/01/26 06:08:07;;;;;;;;;47.50;36.75;;;;;6.42;57.92;103155.22;4977849;28;45506;-84
2022/01/26 06:10:32;;;;;;;;;50.75;42.00;;;;;6.38;58.58;103136.63;4977558;28;45769;-83
2022/01/26 06:12:58;;;;;;;;;51.00;40.00;;;;;6.45;58.06;103157.00;4978553;28;45583;-83
2022/01/26 06:15:23;;;;;;;;;57.75;43.00;;;;;6.46;58.17;103161.44;4978367;28;46321;-83
2022/01/26 06:17:51;;;;;;;;;51.25;41.25;;;;;6.15;58.25;103107.19;4977332;28;45431;-84
2022/01/26 06:20:17;;;;;;;;;53.50;42.25;;;;;6.41;58.24;103152.53;4978301;28;45428;-83
2022/01/26 06:22:42;;;;;;;;;50.50;40.50;;;;;6.29;58.38;103134.72;4960750;28;45446;-83
2022/01/26 06:25:08;;;;;;;;;56.75;43.75;;;;;6.46;58.14;103170.28;4977941;28;46039;-83
2022/01/26 06:27:35;;;;;;;;;53.25;41.75;;;;;6.50;57.94;103177.38;4977762;28;45469;-85
2022/01/26 06:30:02;;;;;;;;;46.25;35.75;;;;;6.16;57.82;103123.13;4978274;28;45386;-85
2022/01/26 06:32:28;;;;;;;;;58.50;43.25;;;;;6.28;57.56;103141.78;4960562;28;45424;-85
2022/01/26 06:34:54;;;;;;;;;52.75;42.75;;;;;6.18;57.74;103123.09;4960237;28;48192;-86
2022/01/26 06:37:19;;;;;;;;;53.50;40.50;;;;;6.27;57.68;103147.94;4977439;28;45425;-86
2022/01/26 06:39:45;;;;;;;;;52.75;42.00;;;;;6.55;58.14;103202.19;4959333;28;45363;-84
2022/01/26 06:42:16;;;;;;;;;56.00;45.00;;;;;6.10;58.30;103123.03;4975786;28;45730;-85
2022/01/26 06:44:55;;;;;;;;;58.75;44.00;;;;;6.25;58.16;103156.75;4976578;28;45594;-87
2022/01/26 06:49:50;;;;;;;;;52.25;43.00;;;;;6.33;58.16;103169.22;4978048;28;46018;-87
2022/01/26 06:52:15;;;;;;;;;60.25;48.25;;;;;6.54;57.53;103200.41;4977812;28;45472;-86
2022/01/26 06:54:41;;;;;;;;;56.25;44.50;;;;;6.32;58.02;103156.88;4978125;28;46499;-86
2022/01/26 06:57:06;;;;;;;;;58.00;45.50;;;;;6.70;57.95;103209.44;4977424;28;45355;-86
2022/01/26 06:59:31;;;;;;;;;56.00;44.25;;;;;6.71;58.15;103231.53;4978063;28;45354;-86
2022/01/26 07:01:57;;;;;;;;;55.25;45.25;;;;;6.41;58.01;103168.44;4960617;28;45279;-86
2022/01/26 07:04:22;;;;;;;;;56.75;45.50;;;;;6.29;57.89;103147.97;4973153;28;45394;-86
2022/01/26 07:06:47;;;;;;;;;62.00;44.50;;;;;6.26;57.66;103134.72;4959887;28;45429;-85
2022/01/26 07:09:13;;;;;;;;;57.50;46.50;;;;;6.71;57.44;103194.41;4977041;28;45317;-85
2022/01/26 07:11:38;;;;;;;;;55.25;42.50;;;;;6.67;57.22;103184.66;4978247;28;45219;-86
2022/01/26 07:14:08;;;;;;;;;63.50;47.25;;;;;6.46;57.56;103140.22;4977792;28;45368;-86
2022/01/26 07:22:01;;;;;;;;;55.25;43.75;;;;;6.53;56.90;103124.44;4977921;28;45388;-86
2022/01/26 07:24:26;;;;;;;;;52.00;41.25;;;;;6.79;56.46;103175.94;4977008;28;46647;-85
2022/01/26 07:26:53;;;;;;;;;57.00;44.75;;;;;6.43;56.87;103116.38;4976636;28;52513;-86
2022/01/26 07:29:22;;;;;;;;;51.75;40.00;;;;;6.80;56.68;103181.28;4977325;28;45337;-86
2022/01/26 07:31:49;;;;;;;;;51.25;41.25;;;;;6.97;56.28;103216.81;4976958;28;45345;-86
2022/01/26 07:34:16;;;;;;;;;58.25;45.00;;;;;7.02;56.14;103221.28;4981102;28;45436;-84
2022/01/26 07:36:42;;;;;;;;;54.25;44.75;;;;;6.78;57.00;103171.53;4976887;28;45444;-83
2022/01/26 07:39:13;;;;;;;;;50.50;40.50;;;;;7.01;56.65;103211.56;4976124;28;45325;-82
2022/01/26 07:41:38;;;;;;;;;55.50;42.00;;;;;6.85;56.34;103174.25;4977240;28;45421;-83
2022/01/26 07:44:04;;;;;;;;;54.75;44.75;;;;;7.02;56.05;103208.91;4976683;28;45785;-83
2022/01/26 07:46:30;;;;;;;;;57.25;41.50;;;;;7.07;56.47;103219.56;4977076;28;45400;-83
2022/01/26 07:48:56;;;;;;;;;50.00;40.25;;;;;7.07;55.99;103209.88;4977708;28;45349;-83
2022/01/26 07:51:22;;;;;;;;;54.00;40.25;;;;;7.04;55.71;103203.63;4978236;28;45395;-85
2022/01/26 07:53:48;;;;;;;;;62.50;47.00;;;;;6.44;56.69;103107.53;4977511;28;46235;-83
2022/01/26 07:56:13;;;;;;;;;58.75;45.50;;;;;6.97;56.66;103205.31;4977035;28;45883;-83
2022/01/26 07:58:40;;;;;;;;;59.75;45.25;;;;;6.80;55.99;103183.91;4976242;28;45503;-84
2022/01/26 08:01:23;;;;;;;;;;;;;;;;;;;;;
2022/01/26 08:03:49;;;;;;;;;60.00;46.75;;;;;7.18;56.43;103229.41;4975041;28;76345;-84
2022/01/26 08:06:17;;;;;;;;;58.00;44.75;;;;;6.88;56.07;103152.19;4968490;28;45433;-83
2022/01/26 08:08:43;;;;;;;;;63.00;46.50;;;;;7.18;56.29;103199.34;4974956;28;45321;-84
2022/01/26 08:11:08;;;;;;;;;58.00;45.50;;;;;7.08;56.12;103181.56;4977239;28;45512;-82
2022/01/26 08:13:34;;;;;;;;;60.50;43.50;;;;;6.87;55.68;103163.69;4977281;28;46137;-85
2022/01/26 08:15:59;;;;;;;;;51.00;42.25;;;;;7.14;55.79;103206.41;4959112;28;46006;-86
2022/01/26 08:18:25;;;;;;;;;59.25;45.25;;;;;6.41;55.97;103075.72;4959661;28;45381;-85
2022/01/26 08:20:50;;;;;;;;;53.75;43.25;;;;;6.98;55.82;103168.22;4959725;28;45354;-85
2022/01/26 08:23:17;;;;;;;;;54.25;40.00;;;;;7.03;55.58;103178.00;4976882;28;45428;-85
2022/01/26 08:25:43;;;;;;;;;60.00;43.50;;;;;6.72;55.92;103124.66;4977122;28;45556;-84
2022/01/26 08:28:16;;;;;;;;;54.50;43.50;;;;;6.82;55.31;103145.06;4977040;28;45978;-85
2022/01/26 08:30:42;;;;;;;;;52.75;43.00;;;;;7.23;55.91;103204.69;4959883;28;45448;-85
2022/01/26 08:33:07;;;;;;;;;55.75;42.75;;;;;7.24;55.68;103206.50;4976380;28;46366;-85
2022/01/26 08:35:34;;;;;;;;;49.50;38.50;;;;;7.23;55.77;103192.31;4976100;28;45384;-86
2022/01/26 08:38:00;;;;;;;;;75.25;58.75;;;;;7.27;56.04;103191.47;4977240;28;45462;-84
2022/01/26 08:40:26;;;;;;;;;64.25;49.50;;;;;7.19;56.03;103193.19;4980651;28;45435;-85
2022/01/26 08:42:51;;;;;;;;;50.25;40.75;;;;;6.75;55.63;103120.25;4980020;28;45262;-85
2022/01/26 08:45:17;;;;;;;;;52.75;43.50;;;;;6.81;55.73;103114.13;4962089;28;45523;-85
2022/01/26 08:47:42;;;;;;;;;51.25;41.25;;;;;6.87;55.59;103134.53;4962432;28;45402;-85
2022/01/26 08:50:08;;;;;;;;;63.00;50.50;;;;;6.96;55.62;103155.81;4979870;28;45401;-85
2022/01/26 08:52:33;;;;;;;;;60.75;47.25;;;;;7.01;55.26;103158.53;4980356;28;45408;-85
2022/01/26 08:54:59;;;;;;;;;56.50;42.50;;;;;6.75;55.66;103117.63;4979662;28;45472;-85
2022/01/26 08:57:24;;;;;;;;;54.00;43.75;;;;;7.15;55.12;103199.31;4975466;28;46237;-85
2022/01/26 08:59:49;;;;;;;;;54.25;45.50;;;;;7.20;55.45;103192.28;4959141;28;45593;-86
2022/01/26 09:02:15;;;;;;;;;53.75;40.00;;;;;7.48;55.22;103233.25;4978728;28;45390;-85
2022/01/26 09:04:40;;;;;;;;;53.75;41.50;;;;;7.11;55.18;103157.72;4978536;28;45336;-86
2022/01/26 09:07:06;;;;;;;;;53.50;42.25;;;;;7.23;55.57;103181.72;4978614;28;45504;-86
2022/01/26 09:09:42;;;;;;;;;50.75;39.00;;;;;7.34;55.26;103200.38;4979250;28;45419;-86
2022/01/26 09:12:09;;;;;;;;;54.25;42.75;;;;;7.55;55.50;103237.72;4978513;28;46167;-86
2022/01/26 09:14:35;;;;;;;;;58.25;46.75;;;;;7.58;55.70;103248.38;4961642;28;45319;-86
2022/01/26 09:17:02;;;;;;;;;56.00;42.00;;;;;7.04;55.55;103151.47;4978313;28;45456;-86
2022/01/26 09:19:29;;;;;;;;;55.75;41.50;;;;;7.01;55.15;103155.88;4961993;28;45618;-86
2022/01/26 09:21:57;;;;;;;;;52.50;40.50;;;;;7.22;55.74;103194.97;4960367;28;48243;-86
2022/01/26 09:24:26;;;;;;;;;52.00;43.50;;;;;7.48;56.01;103237.66;4978976;28;45488;-85
2022/01/26 09:26:51;;;;;;;;;53.50;42.25;;;;;7.63;55.89;103248.41;4978357;28;45458;-85
2022/01/26 09:29:17;;;;;;;;;56.00;45.00;;;;;7.26;55.31;103184.41;4978410;28;45298;-85
2022/01/26 09:31:42;;;;;;;;;57.75;44.00;;;;;7.22;55.27;103184.38;4978636;28;46274;-86
2022/01/26 09:34:08;;;;;;;;;53.25;42.25;;;;;7.32;55.27;103187.09;4979189;28;45500;-86
2022/01/26 09:36:33;;;;;;;;;55.00;44.75;;;;;7.75;54.92;103256.50;4978924;28;45441;-85
2022/01/26 09:38:58;;;;;;;;;46.50;38.50;;;;;7.56;54.97;103218.28;4978394;28;45226;-85
2022/01/26 09:41:25;;;;;;;;;51.75;42.25;;;;;7.74;54.88;103256.47;4978684;28;45504;-86
2022/01/26 09:43:50;;;;;;;;;55.75;42.50;;;;;7.27;55.25;103183.53;4977997;28;45535;-86
2022/01/26 09:46:15;;;;;;;;;53.50;40.50;;;;;7.27;55.07;103174.69;4978155;28;45472;-86
2022/01/26 09:48:42;;;;;;;;;49.00;39.00;;;;;7.30;54.97;103186.19;4978713;28;45342;-85
2022/01/26 09:51:13;;;;;;;;;55.00;43.25;;;;;7.53;54.96;103238.59;4977355;28;45488;-86
2022/01/26 09:53:38;;;;;;;;;50.00;35.50;;;;;7.30;55.19;103185.31;4978305;28;45380;-86
2022/01/26 09:56:04;;;;;;;;;50.25;41.00;;;;;7.57;55.12;103240.41;4960085;28;45362;-86
2022/01/26 09:58:30;;;;;;;;;50.50;39.25;;;;;7.47;55.34;103222.59;4977716;28;45524;-86
2022/01/26 10:01:00;;;;;;;;;49.50;39.00;;;;;7.88;55.03;103297.31;4977525;28;46096;-85
2022/01/26 10:03:30;;;;;;;;;52.25;42.50;;;;;7.73;54.83;103252.06;4978535;28;45455;-86
2022/01/26 10:05:56;;;;;;;;;61.50;48.00;;;;;7.61;54.76;103231.59;4977661;28;45480;-86
2022/01/26 10:17:01;;;;;;;;;47.50;38.00;;;;;7.84;54.59;103255.66;4978397;28;45753;-86
2022/01/26 10:19:11;;;;;;;;;42.50;33.75;;;;;7.48;54.45;103193.44;4977633;28;45285;-86
2022/01/26 10:21:50;;;;;;;;;47.50;39.75;;;;;8.01;55.00;103277.94;4977112;28;58124;-86
2022/01/26 10:24:20;;;;;;;;;50.50;41.00;;;;;7.61;54.36;103203.28;4975832;28;45342;-86
2022/01/26 10:26:49;;;;;;;;;53.00;41.50;;;;;8.05;54.81;103273.53;4977901;28;45844;-86
2022/01/26 10:29:15;;;;;;;;;55.00;44.75;;;;;7.50;54.56;103180.19;4977664;28;45458;-85
2022/01/26 10:31:41;;;;;;;;;60.25;48.25;;;;;8.04;55.05;103259.38;4959936;28;46212;-85
2022/01/26 10:34:14;;;;;;;;;51.00;42.25;;;;;8.01;54.41;103242.53;4956598;28;45402;-86
2022/01/26 10:36:48;;;;;;;;;51.50;41.00;;;;;7.81;54.60;103213.16;4957738;28;45448;-85
2022/01/26 10:39:26;;;;;;;;;50.00;40.25;;;;;8.08;55.05;103277.97;4960025;28;45491;-85
2022/01/26 10:41:56;;;;;;;;;52.00;41.75;;;;;7.68;54.89;103217.50;4959599;28;47422;-84
2022/01/26 10:44:34;;;;;;;;;54.75;41.75;;;;;8.12;54.96;103282.44;4975255;28;45412;-85
2022/01/26 10:47:02;;;;;;;;;53.00;42.50;;;;;7.77;54.53;103206.06;4959678;28;45466;-87
2022/01/26 10:52:40;;;;;;;;;51.50;42.75;;;;;8.18;54.74;103270.09;4971008;28;45971;-85
2022/01/26 10:55:07;;;;;;;;;51.75;41.75;;;;;7.87;54.71;103205.25;4976253;28;45433;-86
2022/01/26 10:57:34;;;;;;;;;52.00;43.50;;;;;8.18;55.08;103238.22;4976650;28;45483;-86
2022/01/26 11:00:01;;;;;;;;;53.50;43.25;;;;;8.27;54.63;103250.69;4977447;28;45462;-85
2022/01/26 11:02:33;;;;;;;;;55.25;44.00;;;;;8.19;54.96;103241.75;4976135;28;46106;-85
2022/01/26 11:04:58;;;;;;;;;51.75;40.00;;;;;8.29;54.40;103264.88;4976905;28;45377;-86
2022/01/26 11:07:40;;;;;;;;;49.75;40.50;;;;;8.23;54.77;103247.09;4977358;28;45381;-86
2022/01/26 11:10:08;;;;;;;;;50.25;41.00;;;;;8.30;54.69;103248.03;4977682;28;45454;-86
2022/01/26 11:12:38;;;;;;;;;52.25;44.00;;;;;7.87;54.58;103178.72;4976363;28;46373;-86
2022/01/26 11:15:13;;;;;;;;;51.25;41.25;;;;;7.43;54.80;103112.91;4959616;28;45470;-86
2022/01/26 11:17:43;;;;;;;;;53.25;40.50;;;;;7.78;54.74;103146.78;4959510;28;45473;-86
2022/01/26 11:20:18;;;;;;;;;55.50;43.75;;;;;7.85;55.24;103153.91;4977226;28;45393;-86
2022/01/26 11:22:49;;;;;;;;;51.75;42.00;;;;;7.93;55.22;103144.22;4976812;28;45470;-85
2022/01/26 11:25:15;;;;;;;;;57.00;44.75;;;;;8.02;55.03;103141.59;4975694;28;45482;-84
2022/01/26 11:27:41;;;;;;;;;55.75;44.50;;;;;8.43;55.30;103212.72;4976037;28;45286;-87
2022/01/26 11:30:25;;;;;;;;;45.25;37.50;;;;;8.45;54.96;103218.94;4954311;28;45516;-85
2022/01/26 11:32:56;;;;;;;;;45.50;38.75;;;;;8.16;54.96;103173.56;4971574;28;45663;-85
2022/01/26 11:35:23;;;;;;;;;51.75;38.00;;;;;8.53;54.86;103226.06;4971908;28;45480;-85
2022/01/26 11:38:07;;;;;;;;;49.75;40.25;;;;;8.57;55.40;103223.41;4972397;28;45610;-85
2022/01/26 11:46:28;;;;;;;;;59.25;43.50;;;;;8.25;55.46;103143.50;4976597;28;45397;-87
2022/01/26 11:49:02;;;;;;;;;54.75;43.00;;;;;8.18;55.35;103124.00;4975995;28;45466;-86
2022/01/26 11:51:44;;;;;;;;;58.75;45.00;;;;;8.40;55.19;103150.69;4977809;28;45483;-85
2022/01/26 11:54:17;;;;;;;;;54.00;43.50;;;;;8.71;55.03;103201.28;4970742;28;47418;-85
2022/01/26 11:56:57;;;;;;;;;53.75;43.00;;;;;8.69;55.05;103187.13;4970246;28;45600;-83
2022/01/26 11:59:25;;;;;;;;;56.00;43.50;;;;;8.30;54.95;103120.50;4962149;28;45628;-84
2022/01/26 12:02:06;;;;;;;;;54.00;42.75;;;;;8.44;55.39;103147.16;4961253;28;45536;-89
2022/01/26 12:04:34;;;;;;;;;55.00;44.50;;;;;8.72;55.39;103187.13;4962117;28;46799;-87
2022/01/26 12:07:20;;;;;;;;;50.75;40.25;;;;;8.72;55.50;103177.38;4962620;28;45856;-87
2022/01/26 12:09:45;;;;;;;;;59.25;47.25;;;;;8.22;54.54;103080.63;4957953;28;45496;-85
2022/01/26 12:12:17;;;;;;;;;53.25;41.50;;;;;7.92;54.24;103035.34;4977027;28;45431;-88
2022/01/26 12:14:45;;;;;;;;;55.25;42.00;;;;;8.52;54.54;103129.50;4977820;28;46229;-82
2022/01/26 12:17:24;;;;;;;;;52.50;43.00;;;;;7.84;54.90;103014.06;4959805;28;45622;-83
2022/01/26 12:31:59;;;;;;;;;51.00;41.75;;;;;8.71;55.14;103167.66;4978463;28;45480;-82
2022/01/26 12:34:34;;;;;;;;;56.00;45.25;;;;;8.85;55.12;103149.97;4920244;28;45454;-83
2022/01/26 12:37:08;;;;;;;;;51.50;41.25;;;;;8.40;54.76;103086.91;4913465;28;46080;-86
2022/01/26 12:42:40;;;;;;;;;51.25;41.50;;;;;8.82;55.29;103175.63;4914285;28;45574;-82
2022/01/26 12:45:06;;;;;;;;;59.75;43.00;;;;;8.86;55.20;103177.44;4916604;28;45425;-81
2022/01/26 12:47:32;;;;;;;;;52.50;42.50;;;;;8.49;54.99;103118.81;4921637;28;45973;-85
2022/01/26 12:49:58;;;;;;;;;63.00;47.25;;;;;8.23;54.71;103071.75;4917092;28;45613;-84
2022/01/26 12:52:24;;;;;;;;;62.25;47.25;;;;;8.51;55.52;103116.19;4917923;28;45498;-84
2022/01/26 12:54:50;;;;;;;;;50.50;41.25;;;;;8.33;55.38;103080.66;4917729;28;45689;-85
2022/01/26 12:57:15;;;;;;;;;59.25;48.50;;;;;8.76;55.08;103149.94;4901802;28;47233;-84
2022/01/26 12:59:40;;;;;;;;;60.50;46.75;;;;;8.64;54.77;103125.97;4919492;28;45582;-84
2022/01/26 13:02:06;;;;;;;;;60.00;45.75;;;;;8.96;55.50;103170.34;4920857;28;45970;-82
2022/01/26 13:04:31;;;;;;;;;52.00;42.00;;;;;8.36;55.24;103069.16;4923450;28;45590;-86
2022/01/26 13:06:56;;;;;;;;;49.25;41.50;;;;;8.59;54.93;103110.03;4965556;28;47547;-86
2022/01/26 13:09:25;;;;;;;;;53.75;44.00;;;;;8.92;55.03;103157.94;4978780;28;45443;-82
2022/01/26 13:11:59;;;;;;;;;60.00;46.00;;;;;8.45;54.74;103070.09;4966240;28;45482;-87
2022/01/26 13:14:41;;;;;;;;;57.25;46.75;;;;;8.94;54.87;103157.03;4978387;28;45498;-88
2022/01/26 13:28:12;;;;;;;;;59.00;44.50;;;;;8.96;55.08;103149.06;4975462;28;46588;-85
2022/01/26 13:31:01;;;;;;;;;63.25;46.25;;;;;8.80;54.94;103124.22;4974649;28;45383;-87
2022/01/26 13:57:38;;;;;;;;;57.25;43.50;;;;;8.51;55.13;103089.59;4918973;28;45526;-86
2022/01/26 13:59:58;;;;;;;;;59.25;45.50;;;;;8.76;55.41;103133.09;4927947;28;45445;-83
2022/01/26 14:02:26;;;;;;;;;55.00;43.00;;;;;8.75;55.13;103126.00;4922084;28;45458;-84
2022/01/26 14:04:52;;;;;;;;;46.50;37.00;;;;;8.47;54.46;103078.06;4922047;28;45532;-85